sensor_id;sensor_type;location;lat;lon;timestamp;P1;durP1;ratioP1;P2;durP2;ratioP2
26319;SDS011;14024;52.226;5.200;2023-04-01T00:00:48;37.10;;;12.02;;
26319;SDS011;14024;52.226;5.200;2023-04-01T00:03:14;39.80;;;11.13;;
26319;SDS011;14024;52.226;5.200;2023-04-01T00:05:41;29.92;;;10.38;;
26319;SDS011;14024;52.226;5.200;2023-04-01T00:08:07;41.75;;;12.25;;
26319;SDS011;14024;52.226;5.200;2023-04-01T00:10:33;30.80;;;11.70;;
26319;SDS011;14024;52.226;5.200;2023-04-01T00:12:59;43.50;;;10.32;;
26319;SDS011;14024;52.226;5.200;2023-04-01T00:15:25;35.83;;;11.05;;
26319;SDS011;14024;52.226;5.200;2023-04-01T00:17:51;31.17;;;11.45;;
26319;SDS011;14024;52.226;5.200;2023-04-01T00:20:17;43.72;;;13.85;;
26319;SDS011;14024;52.226;5.200;2023-04-01T00:22:43;29.90;;;11.82;;
26319;SDS011;14024;52.226;5.200;2023-04-01T00:25:09;41.08;;;12.88;;
26319;SDS011;14024;52.226;5.200;2023-04-01T00:27:36;42.45;;;13.18;;
26319;SDS011;14024;52.226;5.200;2023-04-01T00:30:02;35.00;;;13.27;;
26319;SDS011;14024;52.226;5.200;2023-04-01T00:32:28;38.80;;;14.02;;
26319;SDS011;14024;52.226;5.200;2023-04-01T00:34:55;38.28;;;13.82;;
26319;SDS011;14024;52.226;5.200;2023-04-01T00:37:24;47.65;;;14.45;;
26319;SDS011;14024;52.226;5.200;2023-04-01T00:39:51;49.17;;;15.80;;
26319;SDS011;14024;52.226;5.200;2023-04-01T00:42:17;50.80;;;15.40;;
26319;SDS011;14024;52.226;5.200;2023-04-01T00:44:45;53.35;;;15.82;;
26319;SDS011;14024;52.226;5.200;2023-04-01T00:47:11;47.65;;;15.45;;
26319;SDS011;14024;52.226;5.200;2023-04-01T00:49:39;46.58;;;15.65;;
26319;SDS011;14024;52.226;5.200;2023-04-01T00:52:06;60.47;;;17.90;;
26319;SDS011;14024;52.226;5.200;2023-04-01T00:54:33;55.13;;;16.05;;
26319;SDS011;14024;52.226;5.200;2023-04-01T00:57:01;42.85;;;15.38;;
26319;SDS011;14024;52.226;5.200;2023-04-01T00:59:29;44.65;;;15.55;;
26319;SDS011;14024;52.226;5.200;2023-04-01T01:01:56;40.88;;;15.88;;
26319;SDS011;14024;52.226;5.200;2023-04-01T01:04:26;37.72;;;13.18;;
26319;SDS011;14024;52.226;5.200;2023-04-01T01:12:16;29.48;;;12.02;;
26319;SDS011;14024;52.226;5.200;2023-04-01T01:14:47;33.58;;;11.95;;
26319;SDS011;14024;52.226;5.200;2023-04-01T01:17:19;33.33;;;12.13;;
26319;SDS011;14024;52.226;5.200;2023-04-01T01:22:31;22.75;;;9.70;;
26319;SDS011;14024;52.226;5.200;2023-04-01T01:25:11;23.60;;;9.52;;
26319;SDS011;14024;52.226;5.200;2023-04-01T01:27:39;20.08;;;8.50;;
26319;SDS011;14024;52.226;5.200;2023-04-01T01:30:12;25.35;;;9.13;;
26319;SDS011;14024;52.226;5.200;2023-04-01T01:37:39;21.35;;;9.13;;
26319;SDS011;14024;52.226;5.200;2023-04-01T01:40:06;18.88;;;9.77;;
26319;SDS011;14024;52.226;5.200;2023-04-01T01:42:35;25.70;;;9.88;;
26319;SDS011;14024;52.226;5.200;2023-04-01T01:45:02;20.83;;;8.57;;
26319;SDS011;14024;52.226;5.200;2023-04-01T01:47:29;19.17;;;7.70;;
26319;SDS011;14024;52.226;5.200;2023-04-01T01:49:56;22.45;;;7.35;;
26319;SDS011;14024;52.226;5.200;2023-04-01T01:52:23;15.95;;;6.95;;
26319;SDS011;14024;52.226;5.200;2023-04-01T01:54:53;14.52;;;6.47;;
26319;SDS011;14024;52.226;5.200;2023-04-01T01:57:21;14.90;;;5.95;;
26319;SDS011;14024;52.226;5.200;2023-04-01T01:59:48;14.18;;;7.35;;
26319;SDS011;14024;52.226;5.200;2023-04-01T02:02:16;13.90;;;7.07;;
26319;SDS011;14024;52.226;5.200;2023-04-01T02:04:43;16.25;;;6.32;;
26319;SDS011;14024;52.226;5.200;2023-04-01T02:07:18;16.13;;;6.28;;
26319;SDS011;14024;52.226;5.200;2023-04-01T02:09:46;14.27;;;5.80;;
26319;SDS011;14024;52.226;5.200;2023-04-01T02:12:13;15.77;;;6.28;;
26319;SDS011;14024;52.226;5.200;2023-04-01T02:14:50;14.38;;;6.47;;
26319;SDS011;14024;52.226;5.200;2023-04-01T02:17:24;16.83;;;7.55;;
26319;SDS011;14024;52.226;5.200;2023-04-01T02:22:18;17.02;;;6.93;;
26319;SDS011;14024;52.226;5.200;2023-04-01T02:24:46;18.20;;;8.00;;
26319;SDS011;14024;52.226;5.200;2023-04-01T02:27:12;18.60;;;7.55;;
26319;SDS011;14024;52.226;5.200;2023-04-01T02:29:38;16.70;;;7.38;;
26319;SDS011;14024;52.226;5.200;2023-04-01T02:32:05;19.60;;;7.88;;
26319;SDS011;14024;52.226;5.200;2023-04-01T02:34:31;15.25;;;7.95;;
26319;SDS011;14024;52.226;5.200;2023-04-01T02:36:58;22.40;;;9.07;;
26319;SDS011;14024;52.226;5.200;2023-04-01T02:39:24;18.80;;;7.85;;
26319;SDS011;14024;52.226;5.200;2023-04-01T02:41:51;19.27;;;9.30;;
26319;SDS011;14024;52.226;5.200;2023-04-01T02:44:17;19.00;;;8.93;;
26319;SDS011;14024;52.226;5.200;2023-04-01T02:46:43;22.80;;;10.57;;
26319;SDS011;14024;52.226;5.200;2023-04-01T02:49:09;19.17;;;10.35;;
26319;SDS011;14024;52.226;5.200;2023-04-01T02:51:37;24.23;;;12.40;;
26319;SDS011;14024;52.226;5.200;2023-04-01T02:54:03;27.33;;;12.88;;
26319;SDS011;14024;52.226;5.200;2023-04-01T02:56:29;27.50;;;12.23;;
26319;SDS011;14024;52.226;5.200;2023-04-01T02:58:56;33.47;;;14.73;;
26319;SDS011;14024;52.226;5.200;2023-04-01T03:01:22;30.63;;;13.38;;
26319;SDS011;14024;52.226;5.200;2023-04-01T03:03:48;33.30;;;14.63;;
26319;SDS011;14024;52.226;5.200;2023-04-01T03:06:14;38.08;;;15.05;;
26319;SDS011;14024;52.226;5.200;2023-04-01T03:08:41;33.53;;;15.18;;
26319;SDS011;14024;52.226;5.200;2023-04-01T03:11:07;42.08;;;17.63;;
26319;SDS011;14024;52.226;5.200;2023-04-01T03:13:33;42.47;;;17.30;;
26319;SDS011;14024;52.226;5.200;2023-04-01T03:15:59;47.13;;;16.92;;
26319;SDS011;14024;52.226;5.200;2023-04-01T03:18:25;45.83;;;17.35;;
26319;SDS011;14024;52.226;5.200;2023-04-01T03:20:51;45.60;;;17.30;;
26319;SDS011;14024;52.226;5.200;2023-04-01T03:23:17;43.15;;;17.45;;
26319;SDS011;14024;52.226;5.200;2023-04-01T03:25:45;44.35;;;15.45;;
26319;SDS011;14024;52.226;5.200;2023-04-01T03:28:11;42.72;;;16.90;;
26319;SDS011;14024;52.226;5.200;2023-04-01T03:30:38;38.53;;;14.57;;
26319;SDS011;14024;52.226;5.200;2023-04-01T03:33:04;45.70;;;14.93;;
26319;SDS011;14024;52.226;5.200;2023-04-01T03:35:30;34.08;;;14.05;;
26319;SDS011;14024;52.226;5.200;2023-04-01T03:37:56;33.47;;;12.88;;
26319;SDS011;14024;52.226;5.200;2023-04-01T03:40:22;30.33;;;12.45;;
26319;SDS011;14024;52.226;5.200;2023-04-01T03:42:49;31.50;;;13.23;;
26319;SDS011;14024;52.226;5.200;2023-04-01T03:45:15;31.30;;;12.65;;
26319;SDS011;14024;52.226;5.200;2023-04-01T03:47:41;26.90;;;12.05;;
26319;SDS011;14024;52.226;5.200;2023-04-01T03:50:07;32.97;;;12.25;;
26319;SDS011;14024;52.226;5.200;2023-04-01T03:52:34;30.85;;;12.75;;
26319;SDS011;14024;52.226;5.200;2023-04-01T03:55:01;28.38;;;12.68;;
26319;SDS011;14024;52.226;5.200;2023-04-01T03:57:27;25.52;;;10.45;;
26319;SDS011;14024;52.226;5.200;2023-04-01T03:59:53;27.40;;;11.10;;
26319;SDS011;14024;52.226;5.200;2023-04-01T04:02:19;21.40;;;9.05;;
26319;SDS011;14024;52.226;5.200;2023-04-01T04:04:45;22.83;;;8.40;;
26319;SDS011;14024;52.226;5.200;2023-04-01T04:07:11;20.55;;;7.68;;
26319;SDS011;14024;52.226;5.200;2023-04-01T04:09:37;15.70;;;6.70;;
26319;SDS011;14024;52.226;5.200;2023-04-01T04:12:03;14.60;;;6.10;;
26319;SDS011;14024;52.226;5.200;2023-04-01T04:14:30;10.55;;;5.00;;
26319;SDS011;14024;52.226;5.200;2023-04-01T04:16:56;11.38;;;5.53;;
26319;SDS011;14024;52.226;5.200;2023-04-01T04:19:22;12.88;;;5.55;;
26319;SDS011;14024;52.226;5.200;2023-04-01T04:21:48;16.98;;;5.70;;
26319;SDS011;14024;52.226;5.200;2023-04-01T04:24:14;12.50;;;5.90;;
26319;SDS011;14024;52.226;5.200;2023-04-01T04:26:40;15.57;;;5.25;;
26319;SDS011;14024;52.226;5.200;2023-04-01T04:29:06;20.13;;;7.00;;
26319;SDS011;14024;52.226;5.200;2023-04-01T04:31:32;14.63;;;5.60;;
26319;SDS011;14024;52.226;5.200;2023-04-01T04:33:59;21.75;;;6.43;;
26319;SDS011;14024;52.226;5.200;2023-04-01T04:36:26;16.85;;;6.05;;
26319;SDS011;14024;52.226;5.200;2023-04-01T04:38:52;18.08;;;7.72;;
26319;SDS011;14024;52.226;5.200;2023-04-01T04:41:18;18.70;;;7.15;;
26319;SDS011;14024;52.226;5.200;2023-04-01T04:43:51;19.98;;;7.68;;
26319;SDS011;14024;52.226;5.200;2023-04-01T04:46:17;19.15;;;8.50;;
26319;SDS011;14024;52.226;5.200;2023-04-01T04:48:44;19.77;;;8.10;;
26319;SDS011;14024;52.226;5.200;2023-04-01T04:51:12;20.42;;;8.57;;
26319;SDS011;14024;52.226;5.200;2023-04-01T04:53:39;20.13;;;8.60;;
26319;SDS011;14024;52.226;5.200;2023-04-01T04:56:05;20.73;;;8.10;;
26319;SDS011;14024;52.226;5.200;2023-04-01T04:58:31;21.02;;;8.80;;
26319;SDS011;14024;52.226;5.200;2023-04-01T05:00:58;21.45;;;9.18;;
26319;SDS011;14024;52.226;5.200;2023-04-01T05:03:24;18.98;;;9.07;;
26319;SDS011;14024;52.226;5.200;2023-04-01T05:05:51;18.48;;;8.15;;
26319;SDS011;14024;52.226;5.200;2023-04-01T05:08:18;21.25;;;9.52;;
26319;SDS011;14024;52.226;5.200;2023-04-01T05:10:44;23.77;;;9.90;;
26319;SDS011;14024;52.226;5.200;2023-04-01T05:13:10;22.15;;;9.63;;
26319;SDS011;14024;52.226;5.200;2023-04-01T05:15:36;20.83;;;8.55;;
26319;SDS011;14024;52.226;5.200;2023-04-01T05:18:02;19.75;;;8.90;;
26319;SDS011;14024;52.226;5.200;2023-04-01T05:20:28;21.55;;;8.82;;
26319;SDS011;14024;52.226;5.200;2023-04-01T05:22:58;22.63;;;9.50;;
26319;SDS011;14024;52.226;5.200;2023-04-01T05:25:24;23.63;;;9.77;;
26319;SDS011;14024;52.226;5.200;2023-04-01T05:27:50;23.73;;;10.35;;
26319;SDS011;14024;52.226;5.200;2023-04-01T05:30:16;22.38;;;9.68;;
26319;SDS011;14024;52.226;5.200;2023-04-01T05:32:42;30.67;;;10.95;;
26319;SDS011;14024;52.226;5.200;2023-04-01T05:35:08;23.33;;;9.57;;
26319;SDS011;14024;52.226;5.200;2023-04-01T05:37:35;24.17;;;9.35;;
26319;SDS011;14024;52.226;5.200;2023-04-01T05:40:01;23.50;;;9.15;;
26319;SDS011;14024;52.226;5.200;2023-04-01T05:42:27;22.92;;;10.38;;
26319;SDS011;14024;52.226;5.200;2023-04-01T05:44:53;22.98;;;8.93;;
26319;SDS011;14024;52.226;5.200;2023-04-01T05:47:20;25.25;;;10.65;;
26319;SDS011;14024;52.226;5.200;2023-04-01T05:49:46;22.65;;;9.95;;
26319;SDS011;14024;52.226;5.200;2023-04-01T05:52:12;23.55;;;9.05;;
26319;SDS011;14024;52.226;5.200;2023-04-01T05:54:38;24.23;;;8.98;;
26319;SDS011;14024;52.226;5.200;2023-04-01T05:57:04;23.40;;;9.30;;
26319;SDS011;14024;52.226;5.200;2023-04-01T05:59:30;23.83;;;10.43;;
26319;SDS011;14024;52.226;5.200;2023-04-01T06:01:56;19.42;;;9.90;;
26319;SDS011;14024;52.226;5.200;2023-04-01T06:04:23;18.65;;;8.30;;
26319;SDS011;14024;52.226;5.200;2023-04-01T06:06:50;25.65;;;10.68;;
26319;SDS011;14024;52.226;5.200;2023-04-01T06:09:23;19.88;;;9.60;;
26319;SDS011;14024;52.226;5.200;2023-04-01T06:19:47;15.93;;;7.35;;
26319;SDS011;14024;52.226;5.200;2023-04-01T06:25:10;15.10;;;6.80;;
26319;SDS011;14024;52.226;5.200;2023-04-01T06:28:02;14.30;;;5.50;;
26319;SDS011;14024;52.226;5.200;2023-04-01T06:30:33;13.73;;;6.63;;
26319;SDS011;14024;52.226;5.200;2023-04-01T06:35:31;18.77;;;7.20;;
26319;SDS011;14024;52.226;5.200;2023-04-01T06:41:09;15.60;;;6.47;;
26319;SDS011;14024;52.226;5.200;2023-04-01T06:43:44;17.23;;;7.10;;
26319;SDS011;14024;52.226;5.200;2023-04-01T06:46:24;13.82;;;6.65;;
26319;SDS011;14024;52.226;5.200;2023-04-01T06:51:28;11.82;;;5.53;;
26319;SDS011;14024;52.226;5.200;2023-04-01T06:54:13;11.45;;;4.70;;
26319;SDS011;14024;52.226;5.200;2023-04-01T06:56:42;13.35;;;5.32;;
26319;SDS011;14024;52.226;5.200;2023-04-01T06:59:25;9.43;;;4.75;;
26319;SDS011;14024;52.226;5.200;2023-04-01T07:01:52;18.05;;;7.22;;
26319;SDS011;14024;52.226;5.200;2023-04-01T07:04:24;21.50;;;8.82;;
26319;SDS011;14024;52.226;5.200;2023-04-01T07:06:58;27.88;;;10.55;;
26319;SDS011;14024;52.226;5.200;2023-04-01T07:11:51;24.40;;;10.10;;
26319;SDS011;14024;52.226;5.200;2023-04-01T07:14:26;27.70;;;9.50;;
26319;SDS011;14024;52.226;5.200;2023-04-01T07:16:56;24.08;;;10.60;;
26319;SDS011;14024;52.226;5.200;2023-04-01T07:19:32;22.77;;;9.77;;
26319;SDS011;14024;52.226;5.200;2023-04-01T07:24:41;23.00;;;9.43;;
26319;SDS011;14024;52.226;5.200;2023-04-01T07:27:10;27.50;;;10.73;;
26319;SDS011;14024;52.226;5.200;2023-04-01T07:29:36;29.33;;;11.20;;
26319;SDS011;14024;52.226;5.200;2023-04-01T07:37:12;30.95;;;12.10;;
26319;SDS011;14024;52.226;5.200;2023-04-01T07:45:14;29.23;;;11.75;;
26319;SDS011;14024;52.226;5.200;2023-04-01T07:50:29;37.33;;;13.45;;
26319;SDS011;14024;52.226;5.200;2023-04-01T07:55:28;29.80;;;12.80;;
26319;SDS011;14024;52.226;5.200;2023-04-01T07:58:02;32.65;;;12.48;;
26319;SDS011;14024;52.226;5.200;2023-04-01T08:13:53;29.58;;;11.68;;
26319;SDS011;14024;52.226;5.200;2023-04-01T08:16:32;33.95;;;12.10;;
26319;SDS011;14024;52.226;5.200;2023-04-01T08:19:09;34.20;;;12.52;;
26319;SDS011;14024;52.226;5.200;2023-04-01T08:21:42;34.40;;;13.07;;
26319;SDS011;14024;52.226;5.200;2023-04-01T08:24:16;24.15;;;11.00;;
26319;SDS011;14024;52.226;5.200;2023-04-01T08:26:45;32.67;;;13.07;;
26319;SDS011;14024;52.226;5.200;2023-04-01T08:29:13;30.70;;;11.20;;
26319;SDS011;14024;52.226;5.200;2023-04-01T08:31:58;33.65;;;11.43;;
26319;SDS011;14024;52.226;5.200;2023-04-01T08:34:28;30.35;;;11.75;;
26319;SDS011;14024;52.226;5.200;2023-04-01T08:37:00;34.97;;;12.60;;
26319;SDS011;14024;52.226;5.200;2023-04-01T08:44:41;23.90;;;10.68;;
26319;SDS011;14024;52.226;5.200;2023-04-01T08:47:34;25.85;;;11.20;;
26319;SDS011;14024;52.226;5.200;2023-04-01T09:00:44;20.25;;;8.95;;
26319;SDS011;14024;52.226;5.200;2023-04-01T09:21:58;14.30;;;7.18;;
26319;SDS011;14024;52.226;5.200;2023-04-01T09:24:35;17.33;;;7.55;;
26319;SDS011;14024;52.226;5.200;2023-04-01T09:27:10;15.63;;;7.18;;
26319;SDS011;14024;52.226;5.200;2023-04-01T09:34:54;17.63;;;8.02;;
26319;SDS011;14024;52.226;5.200;2023-04-01T09:37:35;19.55;;;7.80;;
26319;SDS011;14024;52.226;5.200;2023-04-01T09:45:01;22.27;;;9.70;;
26319;SDS011;14024;52.226;5.200;2023-04-01T09:50:06;24.67;;;10.48;;
26319;SDS011;14024;52.226;5.200;2023-04-01T09:52:45;22.80;;;10.05;;
26319;SDS011;14024;52.226;5.200;2023-04-01T10:08:19;29.58;;;13.25;;
26319;SDS011;14024;52.226;5.200;2023-04-01T10:13:27;25.77;;;11.15;;
26319;SDS011;14024;52.226;5.200;2023-04-01T10:23:47;27.77;;;13.15;;
26319;SDS011;14024;52.226;5.200;2023-04-01T10:26:20;23.45;;;10.25;;
26319;SDS011;14024;52.226;5.200;2023-04-01T10:44:35;15.85;;;7.13;;
26319;SDS011;14024;52.226;5.200;2023-04-01T10:52:12;17.85;;;8.50;;
26319;SDS011;14024;52.226;5.200;2023-04-01T10:54:48;18.30;;;7.93;;
26319;SDS011;14024;52.226;5.200;2023-04-01T11:10:52;13.82;;;7.53;;
26319;SDS011;14024;52.226;5.200;2023-04-01T11:28:57;14.95;;;8.15;;
26319;SDS011;14024;52.226;5.200;2023-04-01T11:31:32;17.73;;;8.73;;
26319;SDS011;14024;52.226;5.200;2023-04-01T11:34:16;14.82;;;8.43;;
26319;SDS011;14024;52.226;5.200;2023-04-01T11:44:27;20.85;;;10.63;;
26319;SDS011;14024;52.226;5.200;2023-04-01T11:55:23;21.85;;;10.20;;
26319;SDS011;14024;52.226;5.200;2023-04-01T12:00:42;19.98;;;10.65;;
26319;SDS011;14024;52.226;5.200;2023-04-01T12:11:32;24.67;;;11.48;;
26319;SDS011;14024;52.226;5.200;2023-04-01T12:16:43;29.08;;;12.93;;
26319;SDS011;14024;52.226;5.200;2023-04-01T12:21:43;25.13;;;12.98;;
26319;SDS011;14024;52.226;5.200;2023-04-01T12:31:51;33.13;;;14.88;;
26319;SDS011;14024;52.226;5.200;2023-04-01T12:53:01;19.42;;;10.27;;
26319;SDS011;14024;52.226;5.200;2023-04-01T13:02:55;21.23;;;10.27;;
26319;SDS011;14024;52.226;5.200;2023-04-01T13:07:58;21.58;;;9.07;;
26319;SDS011;14024;52.226;5.200;2023-04-01T13:18:17;17.35;;;8.88;;
26319;SDS011;14024;52.226;5.200;2023-04-01T13:25:39;11.80;;;6.90;;
26319;SDS011;14024;52.226;5.200;2023-04-01T13:28:12;12.57;;;7.13;;
26319;SDS011;14024;52.226;5.200;2023-04-01T13:33:48;14.40;;;7.72;;
26319;SDS011;14024;52.226;5.200;2023-04-01T13:36:26;14.70;;;7.63;;
26319;SDS011;14024;52.226;5.200;2023-04-01T13:44:08;18.30;;;8.88;;
26319;SDS011;14024;52.226;5.200;2023-04-01T13:47:20;13.40;;;7.97;;
26319;SDS011;14024;52.226;5.200;2023-04-01T14:02:59;16.60;;;9.95;;
26319;SDS011;14024;52.226;5.200;2023-04-01T14:08:00;20.27;;;10.45;;
26319;SDS011;14024;52.226;5.200;2023-04-01T14:16:25;19.90;;;10.05;;
26319;SDS011;14024;52.226;5.200;2023-04-01T14:18:56;17.05;;;9.98;;
26319;SDS011;14024;52.226;5.200;2023-04-01T14:21:28;17.27;;;9.30;;
26319;SDS011;14024;52.226;5.200;2023-04-01T14:34:26;17.92;;;10.07;;
26319;SDS011;14024;52.226;5.200;2023-04-01T14:39:38;20.50;;;9.45;;
26319;SDS011;14024;52.226;5.200;2023-04-01T14:50:02;16.83;;;9.23;;
26319;SDS011;14024;52.226;5.200;2023-04-01T14:52:33;18.00;;;10.05;;
26319;SDS011;14024;52.226;5.200;2023-04-01T14:55:01;19.70;;;9.57;;
26319;SDS011;14024;52.226;5.200;2023-04-01T14:57:29;20.02;;;10.32;;
26319;SDS011;14024;52.226;5.200;2023-04-01T15:00:12;16.58;;;9.10;;
26319;SDS011;14024;52.226;5.200;2023-04-01T15:02:43;15.02;;;8.57;;
26319;SDS011;14024;52.226;5.200;2023-04-01T15:08:03;21.85;;;9.25;;
26319;SDS011;14024;52.226;5.200;2023-04-01T15:16:16;17.63;;;9.32;;
26319;SDS011;14024;52.226;5.200;2023-04-01T15:19:05;19.45;;;9.60;;
26319;SDS011;14024;52.226;5.200;2023-04-01T15:42:43;14.75;;;7.82;;
26319;SDS011;14024;52.226;5.200;2023-04-01T15:45:17;14.45;;;7.97;;
26319;SDS011;14024;52.226;5.200;2023-04-01T15:47:53;16.02;;;8.00;;
26319;SDS011;14024;52.226;5.200;2023-04-01T16:06:21;8.80;;;5.70;;
26319;SDS011;14024;52.226;5.200;2023-04-01T16:16:41;8.70;;;4.63;;
26319;SDS011;14024;52.226;5.200;2023-04-01T16:22:05;6.15;;;4.20;;
26319;SDS011;14024;52.226;5.200;2023-04-01T16:29:46;8.38;;;4.32;;
26319;SDS011;14024;52.226;5.200;2023-04-01T16:32:22;5.50;;;3.78;;
26319;SDS011;14024;52.226;5.200;2023-04-01T16:37:21;5.50;;;3.25;;
26319;SDS011;14024;52.226;5.200;2023-04-01T16:40:01;6.93;;;3.10;;
26319;SDS011;14024;52.226;5.200;2023-04-01T16:42:34;8.80;;;3.08;;
26319;SDS011;14024;52.226;5.200;2023-04-01T16:50:28;4.68;;;2.95;;
26319;SDS011;14024;52.226;5.200;2023-04-01T16:55:41;7.07;;;3.70;;
26319;SDS011;14024;52.226;5.200;2023-04-01T16:58:09;6.28;;;4.53;;
26319;SDS011;14024;52.226;5.200;2023-04-01T17:00:40;7.32;;;4.57;;
26319;SDS011;14024;52.226;5.200;2023-04-01T17:11:06;10.38;;;4.97;;
26319;SDS011;14024;52.226;5.200;2023-04-01T17:16:10;9.25;;;3.83;;
26319;SDS011;14024;52.226;5.200;2023-04-01T17:21:38;6.75;;;4.65;;
26319;SDS011;14024;52.226;5.200;2023-04-01T17:31:37;6.70;;;3.45;;
26319;SDS011;14024;52.226;5.200;2023-04-01T17:39:31;4.00;;;3.10;;
26319;SDS011;14024;52.226;5.200;2023-04-01T17:45:04;6.75;;;3.22;;
26319;SDS011;14024;52.226;5.200;2023-04-01T17:47:52;9.07;;;4.07;;
26319;SDS011;14024;52.226;5.200;2023-04-01T18:01:10;9.85;;;3.58;;
26319;SDS011;14024;52.226;5.200;2023-04-01T18:09:23;5.28;;;3.80;;
26319;SDS011;14024;52.226;5.200;2023-04-01T18:17:21;6.30;;;4.28;;
26319;SDS011;14024;52.226;5.200;2023-04-01T18:22:48;5.68;;;3.40;;
26319;SDS011;14024;52.226;5.200;2023-04-01T18:25:24;10.20;;;4.50;;
26319;SDS011;14024;52.226;5.200;2023-04-01T18:30:37;6.22;;;4.10;;
26319;SDS011;14024;52.226;5.200;2023-04-01T18:33:08;6.00;;;4.00;;
26319;SDS011;14024;52.226;5.200;2023-04-01T18:35:46;6.45;;;4.78;;
26319;SDS011;14024;52.226;5.200;2023-04-01T18:38:16;4.90;;;3.60;;
26319;SDS011;14024;52.226;5.200;2023-04-01T18:40:52;7.70;;;4.97;;
26319;SDS011;14024;52.226;5.200;2023-04-01T18:43:36;10.38;;;4.30;;
26319;SDS011;14024;52.226;5.200;2023-04-01T18:48:51;6.88;;;4.88;;
26319;SDS011;14024;52.226;5.200;2023-04-01T18:51:44;12.53;;;5.47;;
26319;SDS011;14024;52.226;5.200;2023-04-01T18:54:11;10.35;;;6.10;;
26319;SDS011;14024;52.226;5.200;2023-04-01T18:56:39;14.70;;;6.03;;
26319;SDS011;14024;52.226;5.200;2023-04-01T18:59:21;9.23;;;6.28;;
26319;SDS011;14024;52.226;5.200;2023-04-01T19:04:38;16.10;;;7.40;;
26319;SDS011;14024;52.226;5.200;2023-04-01T19:09:50;12.80;;;7.45;;
26319;SDS011;14024;52.226;5.200;2023-04-01T19:12:34;10.85;;;7.50;;
26319;SDS011;14024;52.226;5.200;2023-04-01T19:17:48;13.90;;;8.10;;
26319;SDS011;14024;52.226;5.200;2023-04-01T19:25:49;14.25;;;8.30;;
26319;SDS011;14024;52.226;5.200;2023-04-01T19:28:51;12.65;;;7.53;;
26319;SDS011;14024;52.226;5.200;2023-04-01T19:31:30;11.60;;;7.68;;
26319;SDS011;14024;52.226;5.200;2023-04-01T19:44:22;14.57;;;8.40;;
26319;SDS011;14024;52.226;5.200;2023-04-01T19:52:09;12.07;;;8.05;;
26319;SDS011;14024;52.226;5.200;2023-04-01T19:54:41;15.13;;;8.17;;
26319;SDS011;14024;52.226;5.200;2023-04-01T19:59:50;13.25;;;8.25;;
26319;SDS011;14024;52.226;5.200;2023-04-01T20:04:49;12.30;;;7.57;;
26319;SDS011;14024;52.226;5.200;2023-04-01T20:07:34;12.63;;;7.85;;
26319;SDS011;14024;52.226;5.200;2023-04-01T20:14:59;12.32;;;7.43;;
26319;SDS011;14024;52.226;5.200;2023-04-01T20:24:50;12.70;;;7.57;;
26319;SDS011;14024;52.226;5.200;2023-04-01T20:27:19;16.23;;;9.00;;
26319;SDS011;14024;52.226;5.200;2023-04-01T20:29:54;13.25;;;8.13;;
26319;SDS011;14024;52.226;5.200;2023-04-01T20:32:28;11.23;;;7.25;;
26319;SDS011;14024;52.226;5.200;2023-04-01T20:37:37;17.27;;;8.25;;
26319;SDS011;14024;52.226;5.200;2023-04-01T20:52:29;16.42;;;7.97;;
26319;SDS011;14024;52.226;5.200;2023-04-01T20:55:18;14.77;;;8.45;;
26319;SDS011;14024;52.226;5.200;2023-04-01T20:58:09;13.02;;;7.00;;
26319;SDS011;14024;52.226;5.200;2023-04-01T21:00:45;13.35;;;7.47;;
26319;SDS011;14024;52.226;5.200;2023-04-01T21:06:10;15.77;;;8.13;;
26319;SDS011;14024;52.226;5.200;2023-04-01T21:08:56;14.32;;;8.35;;
26319;SDS011;14024;52.226;5.200;2023-04-01T21:11:28;16.17;;;8.15;;
26319;SDS011;14024;52.226;5.200;2023-04-01T21:19:36;15.35;;;8.98;;
26319;SDS011;14024;52.226;5.200;2023-04-01T21:22:15;18.77;;;8.00;;
26319;SDS011;14024;52.226;5.200;2023-04-01T21:24:49;13.65;;;8.23;;
26319;SDS011;14024;52.226;5.200;2023-04-01T21:40:48;15.05;;;8.85;;
26319;SDS011;14024;52.226;5.200;2023-04-01T21:45:58;13.77;;;8.48;;
26319;SDS011;14024;52.226;5.200;2023-04-01T21:48:34;13.52;;;8.15;;
26319;SDS011;14024;52.226;5.200;2023-04-01T22:06:49;21.00;;;10.27;;
26319;SDS011;14024;52.226;5.200;2023-04-01T22:09:27;17.50;;;9.20;;
26319;SDS011;14024;52.226;5.200;2023-04-01T22:11:58;16.90;;;10.48;;
26319;SDS011;14024;52.226;5.200;2023-04-01T22:14:33;18.00;;;8.95;;
26319;SDS011;14024;52.226;5.200;2023-04-01T22:17:08;19.33;;;10.38;;
26319;SDS011;14024;52.226;5.200;2023-04-01T22:19:56;17.10;;;9.18;;
26319;SDS011;14024;52.226;5.200;2023-04-01T22:25:17;14.77;;;8.65;;
26319;SDS011;14024;52.226;5.200;2023-04-01T22:27:49;17.95;;;9.82;;
26319;SDS011;14024;52.226;5.200;2023-04-01T22:32:50;18.23;;;9.05;;
26319;SDS011;14024;52.226;5.200;2023-04-01T22:40:25;15.65;;;9.18;;
26319;SDS011;14024;52.226;5.200;2023-04-01T22:42:56;19.00;;;10.00;;
26319;SDS011;14024;52.226;5.200;2023-04-01T22:50:53;15.50;;;9.05;;
26319;SDS011;14024;52.226;5.200;2023-04-01T22:55:47;19.45;;;10.30;;
26319;SDS011;14024;52.226;5.200;2023-04-01T22:58:17;21.48;;;10.73;;
26319;SDS011;14024;52.226;5.200;2023-04-01T23:01:19;18.15;;;9.68;;
26319;SDS011;14024;52.226;5.200;2023-04-01T23:03:43;21.35;;;11.38;;
26319;SDS011;14024;52.226;5.200;2023-04-01T23:06:14;19.35;;;10.88;;
26319;SDS011;14024;52.226;5.200;2023-04-01T23:11:36;20.60;;;11.27;;
26319;SDS011;14024;52.226;5.200;2023-04-01T23:16:35;19.17;;;10.20;;
26319;SDS011;14024;52.226;5.200;2023-04-01T23:19:17;18.02;;;10.32;;
26319;SDS011;14024;52.226;5.200;2023-04-01T23:21:48;21.15;;;11.00;;
26319;SDS011;14024;52.226;5.200;2023-04-01T23:26:52;25.40;;;11.20;;
26319;SDS011;14024;52.226;5.200;2023-04-01T23:29:20;20.20;;;10.80;;
26319;SDS011;14024;52.226;5.200;2023-04-01T23:31:56;23.80;;;11.57;;
26319;SDS011;14024;52.226;5.200;2023-04-01T23:34:24;21.63;;;11.35;;
26319;SDS011;14024;52.226;5.200;2023-04-01T23:36:55;23.75;;;12.48;;
26319;SDS011;14024;52.226;5.200;2023-04-01T23:41:48;20.88;;;11.25;;
26319;SDS011;14024;52.226;5.200;2023-04-01T23:44:16;24.67;;;11.45;;
26319;SDS011;14024;52.226;5.200;2023-04-01T23:46:42;19.02;;;10.90;;
26319;SDS011;14024;52.226;5.200;2023-04-01T23:49:12;28.75;;;12.65;;
26319;SDS011;14024;52.226;5.200;2023-04-01T23:51:46;30.83;;;11.50;;
26319;SDS011;14024;52.226;5.200;2023-04-01T23:54:23;24.52;;;11.98;;
26319;SDS011;14024;52.226;5.200;2023-04-01T23:56:53;22.95;;;11.68;;
26319;SDS011;14024;52.226;5.200;2023-04-01T23:59:27;25.65;;;12.05;;
